Atlante — 2IRS5 — position and weather

sailwx.info

Track history (hours):
 
Tides and Currents Weather Stations Pressure Air Temp Water Temp Dewpoint Dewpoint Depression Visibility Wind Speed Wind Dir Waves Ship Positions

Atlante

Last reported at 2018-Jun-21 21:55 UTC. Time now 2018-Jun-21 21:57 UTC.
Position N 38°54' E 001°26'.

Length 55 m; draft 4.2 m.

Type: Pleasure craft. MMSI: 235112247.

Date/timePositionNaut miles runAvg speedWind from/ knotsBaromVisibWave heightAir tempDewpointWater temp
2018-Jun-21 21:55N 38°54' E 001°26'0 0.0
2018-Jun-21 21:28N 38°54' E 001°26'0 0.0
2018-Jun-21 20:52N 38°54' E 001°26'0 0.0
2018-Jun-21 20:28N 38°54' E 001°26'0 0.0
2018-Jun-21 19:58N 38°54' E 001°26'0 0.0
2018-Jun-21 19:25N 38°54' E 001°26'0 0.0
2018-Jun-21 18:55N 38°54' E 001°26'0 0.0
2018-Jun-21 18:22N 38°54' E 001°26'0 0.0
2018-Jun-21 16:49N 38°54' E 001°26'0 0.6
2018-Jun-21 16:23N 38°54' E 001°26'511.7
2018-Jun-21 15:58N 38°56' E 001°31'5613.4
2018-Jun-21 11:50N 39°38' E 002°17'413.9
2018-Jun-21 11:30N 39°42' E 002°21'813.8
2018-Jun-21 10:57N 39°47' E 002°28'814.0
2018-Jun-21 10:23N 39°53' E 002°35'613.8
2018-Jun-21 09:59N 39°57' E 002°40'913.6
2018-Jun-21 09:19N 40°04' E 002°48'413.5
2018-Jun-21 09:00N 40°07' E 002°52'1913.6
2018-Jun-21 07:37N 40°21' E 003°09'213.2
2018-Jun-21 07:29N 40°22' E 003°10'1012.4
2018-Jun-21 06:43N 40°29' E 003°19'312.7
2018-Jun-21 06:31N 40°31' E 003°21'23412.8
2018-Jun-20 12:12N 43°21' E 006°58'212.6
2018-Jun-20 12:00N 43°23' E 007°00'613.1
2018-Jun-20 11:30N 43°27' E 007°06'812.5
2018-Jun-20 10:52N 43°33' E 007°14'1110.4
2018-Jun-20 09:50N 43°41' E 007°24'3 7.8
2018-Jun-20 09:27N 43°40' E 007°20'  
2018-Jun-17 16:21N 43°42' E 007°17'0 1.2
2018-Jun-17 16:00N 43°41' E 007°17'2 4.6
2018-Jun-17 15:31N 43°40' E 007°20'0 0.2
2018-Jun-17 14:06N 43°41' E 007°20'0 0.0
2018-Jun-17 13:54N 43°41' E 007°20'0 0.0
2018-Jun-17 13:30N 43°41' E 007°20'0 0.0
2018-Jun-17 12:57N 43°41' E 007°20'4 0.7
2018-Jun-17 06:39N 43°43' E 007°25'211.6
2018-Jun-17 06:30N 43°44' E 007°27'1 0.1
2018-Jun-16 21:47N 43°45' E 007°28'0 0.0
2018-Jun-16 16:26N 43°45' E 007°28'0 0.0
2018-Jun-16 15:14N 43°45' E 007°28'0 0.0
2018-Jun-16 14:20N 43°45' E 007°28'0 0.0
2018-Jun-16 07:32N 43°45' E 007°28'0 0.6
2018-Jun-16 07:15N 43°45' E 007°28'1 3.7
2018-Jun-16 06:58N 43°44' E 007°27'0 0.0
2018-Jun-16 06:28N 43°44' E 007°27'0 0.0
2018-Jun-16 05:52N 43°44' E 007°27'0 0.0
2018-Jun-16 05:25N 43°44' E 007°27'0 0.0
2018-Jun-16 04:58N 43°44' E 007°27'0 0.0
2018-Jun-16 03:55N 43°44' E 007°27'0 0.0
2018-Jun-16 03:25N 43°44' E 007°27'0 0.0
2018-Jun-16 02:46N 43°44' E 007°27'0 0.0
2018-Jun-16 02:22N 43°44' E 007°27'0 0.0
2018-Jun-16 01:52N 43°44' E 007°27'0 0.0
2018-Jun-16 01:28N 43°44' E 007°27'0 0.0
2018-Jun-16 00:52N 43°44' E 007°27'0 0.0
2018-Jun-16 00:28N 43°44' E 007°27'0 0.0
2018-Jun-15 21:22N 43°44' E 007°27'0 0.0
2018-Jun-15 19:04N 43°44' E 007°27'0 0.1
2018-Jun-15 18:52N 43°44' E 007°27'0 0.0
2018-Jun-15 17:43N 43°44' E 007°27'0 0.0
2018-Jun-15 17:28N 43°44' E 007°27'0 0.0
2018-Jun-15 16:37N 43°44' E 007°27'0 0.0
2018-Jun-15 16:16N 43°44' E 007°27'0 0.1
2018-Jun-15 15:49N 43°44' E 007°27'0 0.0
2018-Jun-15 15:19N 43°44' E 007°27'0 0.0
2018-Jun-15 14:58N 43°44' E 007°27'0 0.0
2018-Jun-15 14:28N 43°44' E 007°27'0 0.0
2018-Jun-15 13:58N 43°44' E 007°27'0 0.0
2018-Jun-15 13:28N 43°44' E 007°27'0 0.0
2018-Jun-15 12:58N 43°44' E 007°27'0 0.0
2018-Jun-15 12:28N 43°44' E 007°27'0 0.0
2018-Jun-15 11:58N 43°44' E 007°27'0 0.0
2018-Jun-15 11:28N 43°44' E 007°27'0 0.0
2018-Jun-15 10:58N 43°44' E 007°27'0 0.0
2018-Jun-15 10:28N 43°44' E 007°27'0 0.0
2018-Jun-15 09:58N 43°44' E 007°27'0 0.0
2018-Jun-15 09:28N 43°44' E 007°27'0 0.0
2018-Jun-15 08:58N 43°44' E 007°27'0 0.0
2018-Jun-15 08:28N 43°44' E 007°27'0 0.8
2018-Jun-15 08:00N 43°44' E 007°26'5 8.4
2018-Jun-15 07:22N 43°40' E 007°21'513.3
2018-Jun-15 07:00N 43°37' E 007°16'713.2
2018-Jun-15 06:29N 43°33' E 007°09'  
Track history (hours):
 
Tides and Currents Weather Stations Pressure Air Temp Water Temp Dewpoint Dewpoint Depression Visibility Wind Speed Wind Dir Waves Ship Positions

Atlante

Last reported at 2018-Jun-21 21:55 UTC. Time now 2018-Jun-21 21:57 UTC.
Position N 38°54' E 001°26'.

Length 55 m; draft 4.2 m.

Type: Pleasure craft. MMSI: 235112247.

Date/timePositionNaut miles runAvg speedWind from/ knotsBaromVisibWave heightAir tempDewpointWater temp
2018-Jun-21 21:55N 38°54' E 001°26'0 0.0
2018-Jun-21 21:28N 38°54' E 001°26'0 0.0
2018-Jun-21 20:52N 38°54' E 001°26'0 0.0
2018-Jun-21 20:28N 38°54' E 001°26'0 0.0
2018-Jun-21 19:58N 38°54' E 001°26'0 0.0
2018-Jun-21 19:25N 38°54' E 001°26'0 0.0
2018-Jun-21 18:55N 38°54' E 001°26'0 0.0
2018-Jun-21 18:22N 38°54' E 001°26'0 0.0
2018-Jun-21 16:49N 38°54' E 001°26'0 0.6
2018-Jun-21 16:23N 38°54' E 001°26'511.7
2018-Jun-21 15:58N 38°56' E 001°31'5613.4
2018-Jun-21 11:50N 39°38' E 002°17'413.9
2018-Jun-21 11:30N 39°42' E 002°21'813.8
2018-Jun-21 10:57N 39°47' E 002°28'814.0
2018-Jun-21 10:23N 39°53' E 002°35'613.8
2018-Jun-21 09:59N 39°57' E 002°40'913.6
2018-Jun-21 09:19N 40°04' E 002°48'413.5
2018-Jun-21 09:00N 40°07' E 002°52'1913.6
2018-Jun-21 07:37N 40°21' E 003°09'213.2
2018-Jun-21 07:29N 40°22' E 003°10'1012.4
2018-Jun-21 06:43N 40°29' E 003°19'312.7
2018-Jun-21 06:31N 40°31' E 003°21'23412.8
2018-Jun-20 12:12N 43°21' E 006°58'212.6
2018-Jun-20 12:00N 43°23' E 007°00'613.1
2018-Jun-20 11:30N 43°27' E 007°06'812.5
2018-Jun-20 10:52N 43°33' E 007°14'1110.4
2018-Jun-20 09:50N 43°41' E 007°24'3 7.8
2018-Jun-20 09:27N 43°40' E 007°20'  
2018-Jun-17 16:21N 43°42' E 007°17'0 1.2
2018-Jun-17 16:00N 43°41' E 007°17'2 4.6
2018-Jun-17 15:31N 43°40' E 007°20'0 0.2
2018-Jun-17 14:06N 43°41' E 007°20'0 0.0
2018-Jun-17 13:54N 43°41' E 007°20'0 0.0
2018-Jun-17 13:30N 43°41' E 007°20'0 0.0
2018-Jun-17 12:57N 43°41' E 007°20'4 0.7
2018-Jun-17 06:39N 43°43' E 007°25'211.6
2018-Jun-17 06:30N 43°44' E 007°27'1 0.1
2018-Jun-16 21:47N 43°45' E 007°28'0 0.0
2018-Jun-16 16:26N 43°45' E 007°28'0 0.0
2018-Jun-16 15:14N 43°45' E 007°28'0 0.0
2018-Jun-16 14:20N 43°45' E 007°28'0 0.0
2018-Jun-16 07:32N 43°45' E 007°28'0 0.6
2018-Jun-16 07:15N 43°45' E 007°28'1 3.7
2018-Jun-16 06:58N 43°44' E 007°27'0 0.0
2018-Jun-16 06:28N 43°44' E 007°27'0 0.0
2018-Jun-16 05:52N 43°44' E 007°27'0 0.0
2018-Jun-16 05:25N 43°44' E 007°27'0 0.0
2018-Jun-16 04:58N 43°44' E 007°27'0 0.0
2018-Jun-16 03:55N 43°44' E 007°27'0 0.0
2018-Jun-16 03:25N 43°44' E 007°27'0 0.0
2018-Jun-16 02:46N 43°44' E 007°27'0 0.0
2018-Jun-16 02:22N 43°44' E 007°27'0 0.0
2018-Jun-16 01:52N 43°44' E 007°27'0 0.0
2018-Jun-16 01:28N 43°44' E 007°27'0 0.0
2018-Jun-16 00:52N 43°44' E 007°27'0 0.0
2018-Jun-16 00:28N 43°44' E 007°27'0 0.0
2018-Jun-15 21:22N 43°44' E 007°27'0 0.0
2018-Jun-15 19:04N 43°44' E 007°27'0 0.1
2018-Jun-15 18:52N 43°44' E 007°27'0 0.0
2018-Jun-15 17:43N 43°44' E 007°27'0 0.0
2018-Jun-15 17:28N 43°44' E 007°27'0 0.0
2018-Jun-15 16:37N 43°44' E 007°27'0 0.0
2018-Jun-15 16:16N 43°44' E 007°27'0 0.1
2018-Jun-15 15:49N 43°44' E 007°27'0 0.0
2018-Jun-15 15:19N 43°44' E 007°27'0 0.0
2018-Jun-15 14:58N 43°44' E 007°27'0 0.0
2018-Jun-15 14:28N 43°44' E 007°27'0 0.0
2018-Jun-15 13:58N 43°44' E 007°27'0 0.0
2018-Jun-15 13:28N 43°44' E 007°27'0 0.0
2018-Jun-15 12:58N 43°44' E 007°27'0 0.0
2018-Jun-15 12:28N 43°44' E 007°27'0 0.0
2018-Jun-15 11:58N 43°44' E 007°27'0 0.0
2018-Jun-15 11:28N 43°44' E 007°27'0 0.0
2018-Jun-15 10:58N 43°44' E 007°27'0 0.0
2018-Jun-15 10:28N 43°44' E 007°27'0 0.0
2018-Jun-15 09:58N 43°44' E 007°27'0 0.0
2018-Jun-15 09:28N 43°44' E 007°27'0 0.0
2018-Jun-15 08:58N 43°44' E 007°27'0 0.0
2018-Jun-15 08:28N 43°44' E 007°27'0 0.8
2018-Jun-15 08:00N 43°44' E 007°26'5 8.4
2018-Jun-15 07:22N 43°40' E 007°21'513.3
2018-Jun-15 07:00N 43°37' E 007°16'713.2
2018-Jun-15 06:29N 43°33' E 007°09'  

Dump ship's entire track history